Time;durP1;ratioP1;P1;durP2;ratioP2;P2;SDS_P1;SDS_P2;PMS_P1;PMS_P2;Temp;Humidity;BMP_temperature;BMP_pressure;BME280_temperature;BME280_humidity;BME280_pressure;Samples;Min_cycle;Max_cycle;Signal;HPM_P1;HPM_P2
2022/09/20 00:00:12;;;;;;;2.63;1.17;;;;;;;;;;4949395;28;20655;-70
2022/09/20 00:02:37;;;;;;;2.27;1.20;;;;;;;;;;4950282;28;20283;-70
2022/09/20 00:05:03;;;;;;;3.83;1.10;;;;;;;;;;4951923;28;20284;-70
2022/09/20 00:07:28;;;;;;;3.80;1.10;;;;;;;;;;4953889;28;20228;-73
2022/09/20 00:09:53;;;;;;;2.90;1.57;;;;;;;;;;4957947;28;20181;-72
2022/09/20 00:12:18;;;;;;;5.27;1.30;;;;;;;;;;4958457;28;20268;-70
2022/09/20 00:14:43;;;;;;;3.07;1.27;;;;;;;;;;4953736;28;20181;-70
2022/09/20 00:17:09;;;;;;;1.88;1.40;;;;;;;;;;4953309;28;20383;-70
2022/09/20 00:19:34;;;;;;;4.80;1.40;;;;;;;;;;4953051;28;20704;-70
2022/09/20 00:21:59;;;;;;;3.23;1.53;;;;;;;;;;4947800;28;20227;-72
2022/09/20 00:24:25;;;;;;;3.50;1.33;;;;;;;;;;4952250;28;20188;-70
2022/09/20 00:26:50;;;;;;;3.77;1.30;;;;;;;;;;4956258;28;20331;-72
2022/09/20 00:29:15;;;;;;;4.27;1.50;;;;;;;;;;4957010;28;20659;-69
2022/09/20 00:31:41;;;;;;;4.43;1.77;;;;;;;;;;4951241;28;20177;-70
2022/09/20 00:36:51;;;;;;;3.23;1.80;;;;;;;;;;4952523;28;20188;-70
2022/09/20 00:39:17;;;;;;;3.93;2.03;;;;;;;;;;4958977;28;20577;-72
2022/09/20 00:41:42;;;;;;;2.93;1.30;;;;;;;;;;4951719;28;20189;-69
2022/09/20 00:44:26;;;;;;;4.60;1.60;;;;;;;;;;4952187;28;20596;-69
2022/09/20 00:46:51;;;;;;;4.37;1.60;;;;;;;;;;4948207;28;20196;-72
2022/09/20 00:49:18;;;;;;;3.70;1.87;;;;;;;;;;4953054;28;20185;-72
2022/09/20 00:51:49;;;;;;;3.83;2.47;;;;;;;;;;4955281;28;20180;-71
2022/09/20 00:54:16;;;;;;;4.97;2.13;;;;;;;;;;4953621;28;20188;-71
2022/09/20 00:56:42;;;;;;;2.50;1.40;;;;;;;;;;4955582;28;20195;-70
2022/09/20 00:59:29;;;;;;;4.77;1.80;;;;;;;;;;4954758;28;20564;-72
2022/09/20 01:02:01;;;;;;;4.67;1.30;;;;;;;;;;4963635;28;20276;-69
2022/09/20 01:04:27;;;;;;;3.93;1.80;;;;;;;;;;4959598;28;20185;-72
2022/09/20 01:06:53;;;;;;;5.90;2.07;;;;;;;;;;4952720;28;20204;-71
2022/09/20 01:09:19;;;;;;;3.50;1.90;;;;;;;;;;4952015;28;20185;-69
2022/09/20 01:11:44;;;;;;;4.83;1.63;;;;;;;;;;4951545;28;20657;-72
2022/09/20 01:14:12;;;;;;;2.50;1.80;;;;;;;;;;4951319;28;20236;-71
2022/09/20 01:16:37;;;;;;;4.50;1.90;;;;;;;;;;4958708;28;20859;-71
2022/09/20 01:19:07;;;;;;;5.13;1.83;;;;;;;;;;4963316;28;20188;-69
2022/09/20 01:21:32;;;;;;;3.27;1.37;;;;;;;;;;4952601;28;20681;-70
2022/09/20 01:24:12;;;;;;;7.90;2.47;;;;;;;;;;4943585;28;20268;-70
2022/09/20 01:27:04;;;;;;;3.60;1.40;;;;;;;;;;4965947;28;20253;-69
2022/09/20 01:29:32;;;;;;;3.33;1.37;;;;;;;;;;4949385;28;20275;-72
2022/09/20 01:32:00;;;;;;;4.50;1.60;;;;;;;;;;4955439;28;20176;-71
2022/09/20 01:34:25;;;;;;;3.37;1.57;;;;;;;;;;4964799;28;20535;-70
2022/09/20 01:36:53;;;;;;;2.90;1.70;;;;;;;;;;4951792;28;20241;-70
2022/09/20 01:39:18;;;;;;;2.77;1.67;;;;;;;;;;4954942;28;20264;-70
2022/09/20 01:41:46;;;;;;;2.87;1.77;;;;;;;;;;4956046;28;20284;-69
2022/09/20 01:44:15;;;;;;;8.00;1.70;;;;;;;;;;4957629;28;20208;-70
2022/09/20 01:46:41;;;;;;;4.00;1.70;;;;;;;;;;4971048;28;20677;-70
2022/09/20 01:49:15;;;;;;;2.63;1.33;;;;;;;;;;4955947;28;20212;-70
2022/09/20 01:51:50;;;;;;;2.87;1.70;;;;;;;;;;4955049;28;20176;-72
2022/09/20 01:54:34;;;;;;;5.10;2.33;;;;;;;;;;4968988;28;20315;-69
2022/09/20 01:57:05;;;;;;;6.17;1.87;;;;;;;;;;4962511;28;20682;-72
2022/09/20 01:59:48;;;;;;;4.20;1.50;;;;;;;;;;4960941;28;20603;-69
2022/09/20 02:02:13;;;;;;;3.40;1.63;;;;;;;;;;4954851;28;20188;-69
2022/09/20 02:04:39;;;;;;;2.10;1.38;;;;;;;;;;4970130;28;20655;-72
2022/09/20 02:07:13;;;;;;;6.03;1.63;;;;;;;;;;4967353;28;20201;-71
2022/09/20 02:10:02;;;;;;;3.63;2.20;;;;;;;;;;4961810;28;20655;-72
2022/09/20 02:12:49;;;;;;;2.77;1.43;;;;;;;;;;4954555;28;20181;-70
2022/09/20 02:15:35;;;;;;;3.93;1.50;;;;;;;;;;4954530;28;20217;-69
2022/09/20 02:18:19;;;;;;;4.80;1.50;;;;;;;;;;4955755;28;20217;-71
2022/09/20 02:20:53;;;;;;;5.77;2.57;;;;;;;;;;4951886;28;20219;-72
2022/09/20 02:23:37;;;;;;;5.93;2.13;;;;;;;;;;4965202;28;20216;-71
2022/09/20 02:26:02;;;;;;;4.32;2.22;;;;;;;;;;4950835;28;20204;-72
2022/09/20 02:28:54;;;;;;;5.23;2.20;;;;;;;;;;4954616;28;20204;-70
2022/09/20 02:31:45;;;;;;;4.50;1.83;;;;;;;;;;4952442;28;20197;-69
2022/09/20 02:34:33;;;;;;;5.43;1.60;;;;;;;;;;4952507;28;20670;-72
2022/09/20 02:37:14;;;;;;;4.40;1.87;;;;;;;;;;4949198;28;20572;-70
2022/09/20 02:39:58;;;;;;;6.17;2.70;;;;;;;;;;4958185;28;20177;-72
2022/09/20 02:42:33;;;;;;;3.07;1.57;;;;;;;;;;4954851;28;20281;-69
2022/09/20 02:45:17;;;;;;;6.07;2.10;;;;;;;;;;4948519;28;20239;-71
2022/09/20 02:47:42;;;;;;;5.10;1.70;;;;;;;;;;4954450;28;20220;-71
2022/09/20 02:50:18;;;;;;;3.13;1.63;;;;;;;;;;4955231;28;20197;-69
2022/09/20 02:52:56;;;;;;;3.25;1.58;;;;;;;;;;4954497;28;20176;-72
2022/09/20 02:55:34;;;;;;;3.07;1.40;;;;;;;;;;4954772;28;20188;-72
2022/09/20 02:58:08;;;;;;;5.93;1.67;;;;;;;;;;4960978;28;20215;-69
2022/09/20 03:00:52;;;;;;;6.40;1.73;;;;;;;;;;4955551;28;20553;-72
2022/09/20 03:03:29;;;;;;;5.30;1.80;;;;;;;;;;4954960;28;20291;-69
2022/09/20 03:06:13;;;;;;;4.13;1.70;;;;;;;;;;4957712;28;20221;-72
2022/09/20 03:08:56;;;;;;;3.13;1.50;;;;;;;;;;4954330;28;20303;-69
2022/09/20 03:11:33;;;;;;;3.27;1.53;;;;;;;;;;4951483;28;20706;-69
2022/09/20 03:14:04;;;;;;;5.27;1.40;;;;;;;;;;4955599;28;20205;-72
2022/09/20 03:16:39;;;;;;;4.93;1.77;;;;;;;;;;4953750;28;20247;-69
2022/09/20 03:19:11;;;;;;;3.43;1.20;;;;;;;;;;4958494;28;20214;-72
2022/09/20 03:21:55;;;;;;;4.87;1.43;;;;;;;;;;4954386;28;20192;-72
2022/09/20 03:24:26;;;;;;;5.27;1.83;;;;;;;;;;4949782;28;20575;-71
2022/09/20 03:26:55;;;;;;;4.57;1.80;;;;;;;;;;4948461;28;20191;-71
2022/09/20 03:29:21;;;;;;;6.10;1.55;;;;;;;;;;4952811;28;20193;-68
2022/09/20 03:31:54;;;;;;;3.80;1.80;;;;;;;;;;4961609;28;20177;-72
2022/09/20 03:34:20;;;;;;;5.40;1.43;;;;;;;;;;4950765;28;20192;-69
2022/09/20 03:36:51;;;;;;;4.67;1.30;;;;;;;;;;4967939;28;20170;-72
2022/09/20 03:39:30;;;;;;;1.93;1.00;;;;;;;;;;4953365;28;20805;-69
2022/09/20 03:42:17;;;;;;;2.10;1.40;;;;;;;;;;4952248;28;20674;-71
2022/09/20 03:44:46;;;;;;;3.00;1.50;;;;;;;;;;4949452;28;20678;-72
2022/09/20 03:47:12;;;;;;;3.87;1.60;;;;;;;;;;4954700;28;20291;-72
2022/09/20 03:50:05;;;;;;;5.50;1.57;;;;;;;;;;4968613;28;20276;-72
2022/09/20 03:52:36;;;;;;;4.67;1.47;;;;;;;;;;4953736;28;20183;-69
2022/09/20 03:55:14;;;;;;;4.47;1.50;;;;;;;;;;4968282;28;20239;-72
2022/09/20 03:57:39;;;;;;;1.60;1.40;;;;;;;;;;4960037;28;20708;-70
2022/09/20 04:00:14;;;;;;;4.83;1.97;;;;;;;;;;4951184;28;20189;-69
2022/09/20 04:02:45;;;;;;;2.90;1.47;;;;;;;;;;4958695;28;20195;-71
2022/09/20 04:05:10;;;;;;;5.53;3.30;;;;;;;;;;4970359;28;20196;-71
2022/09/20 04:07:47;;;;;;;6.37;3.10;;;;;;;;;;4953950;28;20201;-71
2022/09/20 04:10:24;;;;;;;5.67;2.87;;;;;;;;;;4958281;28;20234;-70
2022/09/20 04:13:08;;;;;;;5.23;2.10;;;;;;;;;;4947329;28;20177;-71
2022/09/20 04:15:33;;;;;;;3.77;1.97;;;;;;;;;;4952672;28;20620;-72
2022/09/20 04:18:16;;;;;;;2.37;1.83;;;;;;;;;;4965132;28;20300;-69
2022/09/20 04:20:49;;;;;;;3.93;1.77;;;;;;;;;;4958042;28;20188;-70
2022/09/20 04:23:27;;;;;;;4.07;2.47;;;;;;;;;;4952366;28;20196;-71
2022/09/20 04:25:52;;;;;;;4.37;2.27;;;;;;;;;;4940632;28;20228;-70
2022/09/20 04:28:24;;;;;;;4.27;2.20;;;;;;;;;;4951065;28;21873;-69
2022/09/20 04:30:54;;;;;;;2.53;1.93;;;;;;;;;;4961172;28;20185;-70
2022/09/20 04:33:23;;;;;;;4.03;1.60;;;;;;;;;;4951645;28;20189;-69
2022/09/20 04:36:27;;;;;;;7.32;3.05;;;;;;;;;;4952653;28;20232;-72
2022/09/20 04:39:11;;;;;;;4.03;1.90;;;;;;;;;;4910258;29;20245;-70
2022/09/20 04:41:50;;;;;;;3.63;1.90;;;;;;;;;;4910679;29;20190;-72
2022/09/20 04:44:34;;;;;;;2.33;1.73;;;;;;;;;;4939366;28;20201;-69
2022/09/20 04:47:04;;;;;;;4.23;1.43;;;;;;;;;;4949032;28;20295;-70
2022/09/20 04:50:00;;;;;;;4.40;2.50;;;;;;;;;;4965141;28;20218;-70
2022/09/20 04:52:45;;;;;;;3.03;1.63;;;;;;;;;;4951296;28;20189;-70
2022/09/20 04:55:13;;;;;;;3.43;1.67;;;;;;;;;;4951360;28;20204;-70
2022/09/20 04:57:57;;;;;;;3.13;1.98;;;;;;;;;;4961743;28;20242;-69
2022/09/20 05:00:23;;;;;;;2.20;1.33;;;;;;;;;;4949885;28;20188;-70
2022/09/20 05:02:51;;;;;;;2.53;1.60;;;;;;;;;;4966099;28;20212;-72
2022/09/20 05:05:16;;;;;;;2.63;1.73;;;;;;;;;;4951168;28;20299;-72
2022/09/20 05:07:41;;;;;;;3.43;1.80;;;;;;;;;;4954071;28;20292;-69
2022/09/20 05:10:33;;;;;;;2.07;1.70;;;;;;;;;;4956667;28;20185;-72
2022/09/20 05:13:20;;;;;;;2.57;1.50;;;;;;;;;;4951218;28;20566;-71
2022/09/20 05:15:55;;;;;;;4.57;1.92;;;;;;;;;;4950873;28;20331;-71
2022/09/20 05:18:20;;;;;;;3.17;2.20;;;;;;;;;;4952328;28;20220;-71
2022/09/20 05:20:48;;;;;;;7.67;2.57;;;;;;;;;;4951536;28;20635;-73
2022/09/20 05:23:21;;;;;;;3.73;2.40;;;;;;;;;;4954204;28;20176;-71
2022/09/20 05:25:46;;;;;;;6.10;2.97;;;;;;;;;;4953766;28;20248;-71
2022/09/20 05:28:18;;;;;;;4.30;2.57;;;;;;;;;;4947711;28;20231;-70
2022/09/20 05:30:45;;;;;;;6.37;2.97;;;;;;;;;;4954453;28;20420;-71
2022/09/20 05:33:11;;;;;;;4.13;2.60;;;;;;;;;;4952171;28;20177;-71
2022/09/20 05:35:53;;;;;;;5.03;3.40;;;;;;;;;;4951531;28;20737;-71
2022/09/20 05:38:33;;;;;;;3.80;2.93;;;;;;;;;;4950324;28;20292;-70
2022/09/20 05:41:08;;;;;;;5.83;3.00;;;;;;;;;;4949688;28;20228;-71
2022/09/20 05:43:35;;;;;;;5.63;2.50;;;;;;;;;;4960356;28;20192;-71
2022/09/20 05:46:21;;;;;;;6.03;2.53;;;;;;;;;;4951322;28;20674;-71
2022/09/20 05:48:56;;;;;;;3.80;2.40;;;;;;;;;;4967047;28;20204;-71
2022/09/20 05:51:21;;;;;;;5.87;2.90;;;;;;;;;;4958288;28;20777;-71
2022/09/20 05:53:55;;;;;;;6.73;2.57;;;;;;;;;;4954968;28;20193;-71
2022/09/20 05:56:32;;;;;;;6.67;3.10;;;;;;;;;;4951998;28;20493;-71
2022/09/20 05:59:01;;;;;;;4.33;2.87;;;;;;;;;;4953602;28;20200;-70
2022/09/20 06:01:40;;;;;;;3.87;2.60;;;;;;;;;;4942800;28;20177;-71
2022/09/20 06:04:11;;;;;;;5.97;2.93;;;;;;;;;;4955450;28;20199;-70
2022/09/20 06:06:42;;;;;;;3.87;2.40;;;;;;;;;;4969875;28;20205;-71
2022/09/20 06:09:08;;;;;;;4.10;2.50;;;;;;;;;;4961455;28;20173;-70
2022/09/20 06:11:36;;;;;;;6.03;2.80;;;;;;;;;;4961831;28;20223;-71
2022/09/20 06:14:10;;;;;;;5.77;2.73;;;;;;;;;;4954290;28;20176;-71
2022/09/20 06:16:52;;;;;;;6.67;3.30;;;;;;;;;;4957374;28;20181;-71
2022/09/20 06:19:24;;;;;;;4.20;2.57;;;;;;;;;;4951728;28;20193;-71
2022/09/20 06:21:53;;;;;;;5.80;2.70;;;;;;;;;;4950518;28;20181;-69
2022/09/20 06:24:31;;;;;;;6.33;4.03;;;;;;;;;;4954526;28;20702;-70
2022/09/20 06:26:58;;;;;;;5.67;2.57;;;;;;;;;;4953153;28;20752;-71
2022/09/20 06:29:28;;;;;;;6.20;3.00;;;;;;;;;;4961148;28;20570;-70
2022/09/20 06:31:53;;;;;;;4.95;3.45;;;;;;;;;;4955029;28;20243;-71
2022/09/20 06:34:19;;;;;;;4.73;2.20;;;;;;;;;;4954157;28;20200;-71
2022/09/20 06:42:29;;;;;;;3.13;2.50;;;;;;;;;;4956506;28;20697;-70
2022/09/20 06:44:55;;;;;;;4.03;2.53;;;;;;;;;;4944775;28;20197;-71
2022/09/20 06:47:21;;;;;;;3.72;2.42;;;;;;;;;;4955649;28;20579;-71
2022/09/20 06:49:49;;;;;;;3.63;2.03;;;;;;;;;;4943508;28;20709;-70
2022/09/20 06:52:15;;;;;;;2.47;1.95;;;;;;;;;;4961039;28;20669;-71
2022/09/20 06:54:44;;;;;;;6.70;2.50;;;;;;;;;;4960518;28;20243;-71
2022/09/20 06:57:11;;;;;;;2.97;2.25;;;;;;;;;;4959446;28;20208;-70
2022/09/20 06:59:36;;;;;;;7.13;2.88;;;;;;;;;;4952477;28;20192;-71
2022/09/20 07:02:01;;;;;;;4.55;2.10;;;;;;;;;;4958732;28;20176;-71
2022/09/20 07:04:26;;;;;;;3.92;2.08;;;;;;;;;;4954767;28;20193;-71
2022/09/20 07:06:58;;;;;;;3.75;1.80;;;;;;;;;;4956989;28;20288;-70
2022/09/20 07:09:23;;;;;;;3.03;1.90;;;;;;;;;;4953668;28;20251;-71
2022/09/20 07:11:48;;;;;;;4.22;2.10;;;;;;;;;;4961926;28;20722;-70
2022/09/20 07:14:14;;;;;;;2.50;1.27;;;;;;;;;;4954293;28;20177;-71
2022/09/20 07:16:39;;;;;;;5.05;1.80;;;;;;;;;;4955653;28;20227;-71
2022/09/20 07:19:05;;;;;;;4.55;1.50;;;;;;;;;;4952377;28;20196;-70
2022/09/20 07:21:30;;;;;;;3.85;1.60;;;;;;;;;;4958744;28;20188;-71
2022/09/20 07:23:56;;;;;;;3.65;1.58;;;;;;;;;;4951600;28;20209;-71
2022/09/20 07:26:25;;;;;;;3.72;1.83;;;;;;;;;;4953715;28;20216;-71
2022/09/20 07:28:50;;;;;;;4.93;1.30;;;;;;;;;;4959437;28;20704;-70
2022/09/20 07:31:17;;;;;;;5.28;1.92;;;;;;;;;;4954322;28;20184;-71
2022/09/20 07:33:42;;;;;;;2.80;1.70;;;;;;;;;;4948099;28;20176;-71
2022/09/20 07:36:08;;;;;;;6.85;1.73;;;;;;;;;;4952293;28;20189;-71
2022/09/20 07:38:33;;;;;;;3.55;1.45;;;;;;;;;;4952557;28;20212;-71
2022/09/20 07:41:01;;;;;;;5.55;1.40;;;;;;;;;;4952056;28;20873;-70
2022/09/20 07:43:26;;;;;;;3.53;1.33;;;;;;;;;;4952755;28;20188;-71
2022/09/20 07:45:55;;;;;;;1.98;1.00;;;;;;;;;;4950223;28;20212;-71
2022/09/20 07:48:21;;;;;;;2.80;1.05;;;;;;;;;;4950430;28;20678;-70
2022/09/20 07:50:54;;;;;;;4.70;1.08;;;;;;;;;;4954733;28;20271;-71
2022/09/20 07:53:19;;;;;;;2.83;0.82;;;;;;;;;;4954076;28;20244;-71
2022/09/20 07:55:55;;;;;;;5.32;1.70;;;;;;;;;;4960376;28;20184;-71
2022/09/20 07:58:20;;;;;;;4.70;1.40;;;;;;;;;;4951705;28;20208;-70
2022/09/20 08:00:50;;;;;;;5.72;1.92;;;;;;;;;;4950452;28;20669;-69
2022/09/20 08:03:15;;;;;;;6.65;1.23;;;;;;;;;;4950737;28;20258;-70
2022/09/20 08:05:40;;;;;;;6.55;2.60;;;;;;;;;;4955905;28;20730;-70
2022/09/20 08:08:06;;;;;;;2.67;0.95;;;;;;;;;;4955291;28;20745;-68
2022/09/20 08:10:31;;;;;;;5.07;1.27;;;;;;;;;;4956082;28;20272;-69
2022/09/20 08:12:58;;;;;;;6.32;1.33;;;;;;;;;;4960030;28;20188;-69
2022/09/20 08:15:24;;;;;;;5.03;2.20;;;;;;;;;;4953535;28;20181;-69
2022/09/20 08:17:49;;;;;;;2.03;1.00;;;;;;;;;;4955685;28;20220;-70
2022/09/20 08:20:15;;;;;;;5.97;1.37;;;;;;;;;;4951656;28;20181;-69
2022/09/20 08:22:42;;;;;;;7.43;1.05;;;;;;;;;;4957681;28;21059;-72
2022/09/20 08:25:07;;;;;;;2.20;0.90;;;;;;;;;;4956723;28;20239;-70
2022/09/20 08:27:32;;;;;;;4.95;1.30;;;;;;;;;;4952042;28;20228;-71
2022/09/20 08:29:57;;;;;;;3.90;1.75;;;;;;;;;;4958715;28;20184;-68
2022/09/20 08:32:23;;;;;;;9.70;1.70;;;;;;;;;;4950763;28;20666;-69
2022/09/20 08:34:48;;;;;;;4.25;1.17;;;;;;;;;;4952969;28;20263;-68
2022/09/20 08:37:14;;;;;;;3.22;0.90;;;;;;;;;;4949972;28;20201;-69
2022/09/20 08:39:39;;;;;;;3.23;1.00;;;;;;;;;;4957811;28;20376;-69
2022/09/20 08:42:11;;;;;;;2.90;0.90;;;;;;;;;;4956623;28;20926;-68
2022/09/20 08:44:51;;;;;;;2.05;0.63;;;;;;;;;;4951228;28;20423;-71
2022/09/20 08:47:16;;;;;;;4.15;0.95;;;;;;;;;;4951288;28;20283;-68
2022/09/20 08:49:42;;;;;;;2.80;0.90;;;;;;;;;;4953469;28;20673;-68
2022/09/20 08:52:10;;;;;;;1.42;0.60;;;;;;;;;;4954916;28;20438;-68
2022/09/20 08:54:35;;;;;;;4.10;0.90;;;;;;;;;;4953483;28;20267;-69
2022/09/20 08:57:05;;;;;;;5.20;1.13;;;;;;;;;;4955028;28;20569;-69
2022/09/20 08:59:31;;;;;;;4.20;1.10;;;;;;;;;;4953023;28;20199;-72
2022/09/20 09:01:58;;;;;;;1.90;0.60;;;;;;;;;;4953788;28;20701;-69
2022/09/20 09:04:24;;;;;;;5.00;0.70;;;;;;;;;;4970849;28;20236;-70
2022/09/20 09:06:51;;;;;;;2.78;0.65;;;;;;;;;;4953157;28;20320;-70
2022/09/20 09:09:24;;;;;;;2.78;0.70;;;;;;;;;;4950845;28;20763;-69
2022/09/20 09:11:51;;;;;;;3.80;0.68;;;;;;;;;;4950072;28;20243;-69
2022/09/20 09:17:11;;;;;;;3.95;0.52;;;;;;;;;;4951944;28;20224;-72
2022/09/20 09:19:44;;;;;;;4.97;0.75;;;;;;;;;;4959176;28;20176;-71
2022/09/20 09:22:09;;;;;;;2.40;0.70;;;;;;;;;;4958347;28;20662;-72
2022/09/20 09:24:34;;;;;;;6.13;0.70;;;;;;;;;;4951662;28;20185;-72
2022/09/20 09:27:11;;;;;;;2.75;0.60;;;;;;;;;;4953712;28;20209;-72
2022/09/20 09:29:47;;;;;;;1.42;0.57;;;;;;;;;;4952410;28;20204;-71
2022/09/20 09:32:18;;;;;;;3.83;0.60;;;;;;;;;;4952193;29;20187;-72
2022/09/20 09:34:43;;;;;;;2.28;0.55;;;;;;;;;;4950026;28;20334;-71
2022/09/20 09:37:21;;;;;;;2.50;0.53;;;;;;;;;;4950159;28;20267;-71
2022/09/20 09:39:46;;;;;;;5.85;1.35;;;;;;;;;;4950733;28;20431;-71
2022/09/20 09:42:19;;;;;;;3.10;0.70;;;;;;;;;;4953311;28;20224;-71
2022/09/20 09:44:49;;;;;;;3.83;0.82;;;;;;;;;;4949538;28;20791;-72
2022/09/20 09:47:27;;;;;;;2.25;0.50;;;;;;;;;;4970298;28;20676;-72
2022/09/20 09:49:56;;;;;;;1.17;0.40;;;;;;;;;;4954170;28;20535;-71
2022/09/20 09:52:24;;;;;;;4.90;0.93;;;;;;;;;;4958521;28;20255;-71
2022/09/20 09:54:51;;;;;;;3.80;1.05;;;;;;;;;;4951042;28;20170;-72
2022/09/20 09:57:25;;;;;;;4.07;0.55;;;;;;;;;;4952902;28;20200;-71
2022/09/20 10:00:05;;;;;;;1.13;0.50;;;;;;;;;;4961111;28;20267;-71
2022/09/20 10:02:39;;;;;;;3.72;0.73;;;;;;;;;;4952735;28;20598;-72
2022/09/20 10:05:15;;;;;;;1.33;0.50;;;;;;;;;;4959792;28;20227;-72
2022/09/20 10:07:47;;;;;;;1.05;0.30;;;;;;;;;;4956285;28;20220;-72
2022/09/20 10:10:13;;;;;;;2.00;0.73;;;;;;;;;;4954479;28;20201;-71
2022/09/20 10:12:41;;;;;;;3.13;0.50;;;;;;;;;;4954453;28;20208;-72
2022/09/20 10:15:25;;;;;;;2.22;0.57;;;;;;;;;;4956847;28;20189;-71
2022/09/20 10:18:02;;;;;;;1.02;0.38;;;;;;;;;;4956303;28;20271;-73
2022/09/20 10:20:46;;;;;;;1.27;0.30;;;;;;;;;;4957080;28;20694;-72
2022/09/20 10:23:14;;;;;;;1.30;0.55;;;;;;;;;;4969011;28;20177;-72
2022/09/20 10:25:48;;;;;;;0.57;0.30;;;;;;;;;;4955765;28;20200;-72
2022/09/20 10:28:20;;;;;;;0.98;0.57;;;;;;;;;;4957514;28;20283;-72
2022/09/20 10:30:57;;;;;;;2.08;0.50;;;;;;;;;;4954814;28;20181;-72
2022/09/20 10:33:33;;;;;;;3.30;0.52;;;;;;;;;;4959663;28;20208;-72
2022/09/20 10:36:19;;;;;;;4.05;0.70;;;;;;;;;;4949992;28;20185;-72
2022/09/20 10:38:47;;;;;;;0.70;0.50;;;;;;;;;;4957243;28;20237;-73
2022/09/20 10:44:21;;;;;;;3.15;0.40;;;;;;;;;;4952782;28;20263;-72
2022/09/20 10:46:46;;;;;;;1.30;0.40;;;;;;;;;;4955451;28;20236;-72
2022/09/20 10:49:30;;;;;;;1.08;0.40;;;;;;;;;;4954380;28;20201;-72
2022/09/20 10:52:02;;;;;;;4.47;1.00;;;;;;;;;;4952026;28;20208;-72
2022/09/20 10:54:27;;;;;;;3.60;0.50;;;;;;;;;;4953883;28;20276;-71
2022/09/20 10:57:00;;;;;;;3.47;0.50;;;;;;;;;;4961884;28;20272;-71
2022/09/20 10:59:34;;;;;;;2.35;0.43;;;;;;;;;;4953357;28;20866;-71
2022/09/20 11:02:11;;;;;;;1.90;0.40;;;;;;;;;;4954022;28;20188;-71
2022/09/20 11:04:55;;;;;;;1.25;0.30;;;;;;;;;;4955020;28;20184;-71
2022/09/20 11:07:20;;;;;;;1.20;0.30;;;;;;;;;;4952010;28;20208;-72
2022/09/20 11:09:49;;;;;;;3.05;0.32;;;;;;;;;;4954228;28;20182;-72
2022/09/20 11:12:33;;;;;;;3.70;0.60;;;;;;;;;;4953230;28;20196;-71
2022/09/20 11:15:13;;;;;;;1.98;0.57;;;;;;;;;;4948063;28;20663;-71
2022/09/20 11:17:41;;;;;;;1.15;0.30;;;;;;;;;;4952479;28;20219;-71
2022/09/20 11:20:07;;;;;;;2.05;0.40;;;;;;;;;;4972557;28;20209;-71
2022/09/20 11:23:01;;;;;;;3.97;0.52;;;;;;;;;;4954297;28;20185;-72
2022/09/20 11:25:29;;;;;;;2.03;0.40;;;;;;;;;;4952485;28;20717;-72
2022/09/20 11:28:17;;;;;;;1.13;0.47;;;;;;;;;;4951316;28;20196;-71
2022/09/20 11:30:52;;;;;;;3.10;0.60;;;;;;;;;;4955095;28;20420;-71
2022/09/20 11:33:24;;;;;;;0.63;0.22;;;;;;;;;;4954601;28;20655;-72
2022/09/20 11:36:00;;;;;;;2.63;0.47;;;;;;;;;;4945543;28;20194;-71
2022/09/20 11:38:31;;;;;;;1.85;0.60;;;;;;;;;;4948049;28;20200;-71
2022/09/20 11:40:57;;;;;;;1.63;0.55;;;;;;;;;;4954635;28;20176;-71
2022/09/20 11:43:25;;;;;;;3.08;0.50;;;;;;;;;;4956928;28;20244;-72
2022/09/20 11:45:54;;;;;;;1.85;0.32;;;;;;;;;;4957060;28;20629;-72
2022/09/20 11:48:31;;;;;;;0.85;0.30;;;;;;;;;;4952978;28;20210;-72
2022/09/20 11:50:59;;;;;;;1.65;0.50;;;;;;;;;;4969456;28;20617;-71
2022/09/20 11:53:31;;;;;;;3.00;0.40;;;;;;;;;;4953391;28;20565;-72
2022/09/20 11:56:01;;;;;;;1.02;0.45;;;;;;;;;;4952252;28;20208;-71
2022/09/20 11:58:26;;;;;;;1.13;0.63;;;;;;;;;;4952390;28;20327;-71
2022/09/20 12:00:54;;;;;;;2.28;0.93;;;;;;;;;;4945095;28;20212;-72
2022/09/20 12:03:20;;;;;;;3.15;0.50;;;;;;;;;;4946653;28;20195;-71
2022/09/20 12:05:45;;;;;;;7.18;1.00;;;;;;;;;;4960648;28;20197;-72
2022/09/20 12:08:40;;;;;;;3.58;0.38;;;;;;;;;;4950566;28;20197;-71
2022/09/20 12:11:09;;;;;;;1.38;0.40;;;;;;;;;;4942033;28;20193;-71
2022/09/20 12:13:39;;;;;;;3.13;0.25;;;;;;;;;;4966265;28;20177;-71
2022/09/20 12:16:13;;;;;;;1.90;0.35;;;;;;;;;;4949616;28;20316;-70
2022/09/20 12:19:06;;;;;;;0.52;0.28;;;;;;;;;;4953906;28;20216;-71
2022/09/20 12:21:51;;;;;;;2.72;0.40;;;;;;;;;;4936876;28;20196;-72
2022/09/20 12:24:18;;;;;;;2.78;0.40;;;;;;;;;;4955447;28;20256;-71
2022/09/20 12:26:43;;;;;;;4.43;0.50;;;;;;;;;;4952853;28;20197;-71
2022/09/20 12:29:24;;;;;;;3.08;0.55;;;;;;;;;;4947921;28;20557;-72
2022/09/20 12:31:51;;;;;;;1.05;0.45;;;;;;;;;;4951285;28;20309;-71
2022/09/20 12:34:16;;;;;;;1.90;0.40;;;;;;;;;;4951537;28;20176;-71
2022/09/20 12:36:42;;;;;;;3.42;0.70;;;;;;;;;;4966376;28;20187;-71
2022/09/20 12:39:07;;;;;;;3.65;0.80;;;;;;;;;;4954660;28;20659;-71
2022/09/20 12:41:50;;;;;;;2.40;0.50;;;;;;;;;;4955496;28;20182;-71
2022/09/20 12:44:22;;;;;;;1.17;0.32;;;;;;;;;;4947981;28;20426;-72
2022/09/20 12:46:54;;;;;;;1.95;0.50;;;;;;;;;;4964436;28;20390;-72
2022/09/20 12:55:09;;;;;;;2.25;0.47;;;;;;;;;;4955528;28;20784;-72
2022/09/20 12:57:34;;;;;;;2.95;0.50;;;;;;;;;;4952327;28;20199;-71
2022/09/20 13:00:01;;;;;;;1.92;0.50;;;;;;;;;;4955561;28;20670;-72
2022/09/20 13:02:56;;;;;;;1.50;0.65;;;;;;;;;;4967981;28;20615;-72
2022/09/20 13:05:32;;;;;;;5.03;0.88;;;;;;;;;;4943836;28;20213;-72
2022/09/20 13:08:01;;;;;;;2.65;0.38;;;;;;;;;;4946535;28;20209;-72
2022/09/20 13:10:29;;;;;;;3.80;1.52;;;;;;;;;;4952430;28;20650;-72
2022/09/20 13:13:17;;;;;;;3.30;0.60;;;;;;;;;;4954953;28;20586;-72
2022/09/20 13:15:47;;;;;;;0.77;0.47;;;;;;;;;;4944402;28;20196;-72
2022/09/20 13:18:14;;;;;;;2.13;0.38;;;;;;;;;;4947198;28;20213;-72
2022/09/20 13:20:39;;;;;;;2.55;0.30;;;;;;;;;;4955167;28;20603;-72
2022/09/20 13:23:05;;;;;;;1.88;0.88;;;;;;;;;;4957647;28;20203;-72
2022/09/20 13:25:31;;;;;;;0.35;0.30;;;;;;;;;;4945194;28;20193;-72
2022/09/20 13:28:05;;;;;;;1.48;0.40;;;;;;;;;;4950839;28;20212;-72
2022/09/20 13:30:34;;;;;;;1.23;0.50;;;;;;;;;;4952037;28;20244;-72
2022/09/20 13:33:16;;;;;;;1.10;0.30;;;;;;;;;;4951787;28;20181;-72
2022/09/20 13:35:43;;;;;;;2.90;0.43;;;;;;;;;;4955758;28;20680;-72
2022/09/20 13:38:08;;;;;;;0.40;0.20;;;;;;;;;;4952779;28;20212;-72
2022/09/20 13:40:38;;;;;;;2.22;0.50;;;;;;;;;;4956053;28;20192;-72
2022/09/20 13:43:23;;;;;;;0.75;0.20;;;;;;;;;;4954226;28;20548;-72
2022/09/20 13:45:55;;;;;;;0.98;0.30;;;;;;;;;;4948543;28;20212;-73
2022/09/20 13:48:23;;;;;;;0.95;0.30;;;;;;;;;;4962339;28;20193;-72
2022/09/20 13:50:48;;;;;;;3.03;0.52;;;;;;;;;;4965416;28;20285;-72
2022/09/20 13:53:15;;;;;;;1.65;0.38;;;;;;;;;;4953645;28;20283;-73
2022/09/20 13:55:41;;;;;;;2.22;0.60;;;;;;;;;;4959454;28;20177;-72
2022/09/20 13:58:06;;;;;;;1.63;0.30;;;;;;;;;;4954213;28;20209;-72
2022/09/20 14:00:32;;;;;;;2.10;0.50;;;;;;;;;;4956555;28;20181;-73
2022/09/20 14:02:57;;;;;;;2.58;0.30;;;;;;;;;;4958524;28;20197;-72
2022/09/20 14:05:24;;;;;;;4.28;1.13;;;;;;;;;;4961653;28;20193;-72
2022/09/20 14:07:49;;;;;;;2.78;0.70;;;;;;;;;;4953679;28;20197;-72
2022/09/20 14:10:35;;;;;;;1.20;0.55;;;;;;;;;;4955934;28;20188;-73
2022/09/20 14:13:01;;;;;;;2.25;0.70;;;;;;;;;;4951209;28;20173;-72
2022/09/20 14:15:35;;;;;;;1.98;0.43;;;;;;;;;;4954757;28;20280;-73
2022/09/20 14:18:03;;;;;;;1.08;0.30;;;;;;;;;;4960142;28;20212;-73
2022/09/20 14:20:28;;;;;;;3.17;0.68;;;;;;;;;;4954578;28;20224;-72
2022/09/20 14:22:54;;;;;;;1.63;0.35;;;;;;;;;;4957346;28;20608;-72
2022/09/20 14:25:21;;;;;;;1.17;0.45;;;;;;;;;;4957020;28;20200;-72
2022/09/20 14:27:46;;;;;;;1.27;0.45;;;;;;;;;;4957543;28;20192;-72
2022/09/20 14:30:31;;;;;;;3.65;0.43;;;;;;;;;;4958756;28;20616;-72
2022/09/20 14:32:56;;;;;;;1.50;0.50;;;;;;;;;;4953817;28;20184;-72
2022/09/20 14:35:22;;;;;;;2.65;0.40;;;;;;;;;;4951618;28;20276;-72
2022/09/20 14:37:48;;;;;;;1.83;0.38;;;;;;;;;;4956218;28;20232;-72
2022/09/20 14:40:24;;;;;;;2.30;0.40;;;;;;;;;;4951271;28;20188;-72
2022/09/20 14:42:49;;;;;;;2.28;0.50;;;;;;;;;;4951043;28;20185;-72
2022/09/20 14:45:22;;;;;;;1.48;0.43;;;;;;;;;;4953400;28;20571;-72
2022/09/20 14:47:59;;;;;;;2.17;0.50;;;;;;;;;;4949733;28;20604;-72
2022/09/20 14:50:27;;;;;;;2.78;0.40;;;;;;;;;;4954470;28;20317;-72
2022/09/20 14:53:01;;;;;;;1.70;0.50;;;;;;;;;;4962732;28;20196;-72
2022/09/20 14:55:27;;;;;;;1.75;0.70;;;;;;;;;;4953331;28;20260;-72
2022/09/20 14:57:57;;;;;;;2.03;0.40;;;;;;;;;;4962333;28;20208;-72
2022/09/20 15:00:22;;;;;;;0.93;0.40;;;;;;;;;;4954518;28;20237;-72
2022/09/20 15:02:48;;;;;;;1.83;0.40;;;;;;;;;;4956738;28;20290;-72
2022/09/20 15:05:32;;;;;;;4.43;0.50;;;;;;;;;;4956404;28;20209;-72
2022/09/20 15:07:58;;;;;;;3.45;0.60;;;;;;;;;;4952776;28;20336;-72
2022/09/20 15:10:24;;;;;;;1.20;0.30;;;;;;;;;;4957223;28;20252;-72
2022/09/20 15:12:49;;;;;;;1.35;0.28;;;;;;;;;;4959109;28;20228;-72
2022/09/20 15:15:17;;;;;;;2.42;0.43;;;;;;;;;;4958012;28;20254;-72
2022/09/20 15:17:43;;;;;;;0.77;0.45;;;;;;;;;;4957354;28;20243;-71
2022/09/20 15:20:12;;;;;;;1.50;0.50;;;;;;;;;;4959606;28;21021;-72
2022/09/20 15:22:37;;;;;;;1.98;0.70;;;;;;;;;;4955444;28;20258;-72
2022/09/20 15:25:03;;;;;;;2.88;0.70;;;;;;;;;;4956383;28;20738;-72
2022/09/20 15:27:28;;;;;;;1.45;0.43;;;;;;;;;;4956973;28;20220;-72